createdAt,value
2022-12-01T00:02:18.087Z,8.85
2022-12-01T00:04:44.552Z,6.80
2022-12-01T00:07:10.947Z,8.50
2022-12-01T00:09:55.913Z,6.85
2022-12-01T00:12:22.305Z,6.93
2022-12-01T00:14:54.749Z,8.90
2022-12-01T00:17:21.713Z,8.07
2022-12-01T00:19:48.340Z,9.60
2022-12-01T00:22:14.872Z,7.20
2022-12-01T00:24:41.240Z,9.60
2022-12-01T00:27:07.659Z,8.50
2022-12-01T00:29:34.325Z,10.13
2022-12-01T00:32:00.795Z,8.77
2022-12-01T00:34:28.042Z,8.25
2022-12-01T00:36:54.559Z,9.20
2022-12-01T00:39:21.022Z,8.15
2022-12-01T00:41:47.473Z,8.40
2022-12-01T00:44:13.894Z,6.78
2022-12-01T00:46:40.314Z,8.23
2022-12-01T00:49:06.708Z,7.80
2022-12-01T00:51:33.207Z,6.47
2022-12-01T00:53:59.612Z,9.35
2022-12-01T00:56:26.071Z,7.13
2022-12-01T00:58:52.489Z,7.28
2022-12-01T01:01:19.381Z,7.85
2022-12-01T01:03:46.085Z,7.63
2022-12-01T01:06:12.957Z,6.63
2022-12-01T01:08:40.390Z,8.85
2022-12-01T01:11:07.370Z,7.55
2022-12-01T01:13:34.684Z,6.25
2022-12-01T01:16:13.423Z,6.88
2022-12-01T01:18:39.852Z,5.93
2022-12-01T01:21:08.573Z,6.53
2022-12-01T01:23:37.365Z,6.57
2022-12-01T01:26:12.639Z,7.15
2022-12-01T01:28:41.481Z,8.55
2022-12-01T01:31:10.174Z,6.68
2022-12-01T01:33:36.632Z,6.97
2022-12-01T01:36:03.897Z,6.63
2022-12-01T01:38:30.791Z,7.63
2022-12-01T01:40:57.275Z,6.68
2022-12-01T01:43:43.009Z,7.18
2022-12-01T01:46:18.030Z,7.25
2022-12-01T01:48:49.207Z,7.38
2022-12-01T01:51:18.198Z,9.75
2022-12-01T01:53:46.345Z,7.45
2022-12-01T01:56:12.765Z,7.68
2022-12-01T01:58:40.233Z,7.68
2022-12-01T02:01:07.079Z,7.40
2022-12-01T02:03:35.501Z,9.65
2022-12-01T02:06:05.162Z,7.80
2022-12-01T02:08:35.325Z,8.80
2022-12-01T02:11:16.309Z,8.10
2022-12-01T02:13:59.150Z,7.80
2022-12-01T02:17:04.197Z,9.18
2022-12-01T02:19:50.696Z,16.63
2022-12-01T02:23:03.541Z,8.50
2022-12-01T02:25:48.036Z,8.63
2022-12-01T02:28:29.899Z,7.65
2022-12-01T02:31:03.642Z,9.10
2022-12-01T02:33:40.744Z,11.30
2022-12-01T02:36:16.051Z,7.38
2022-12-01T02:39:00.968Z,6.60
2022-12-01T02:41:43.398Z,7.40
2022-12-01T02:44:25.603Z,8.15
2022-12-01T02:47:12.803Z,7.85
2022-12-01T02:50:06.339Z,7.78
2022-12-01T02:52:34.333Z,6.45
2022-12-01T02:55:00.740Z,7.50
2022-12-01T02:57:29.903Z,6.78
2022-12-01T02:59:57.436Z,9.25
2022-12-01T03:02:51.871Z,7.90
2022-12-01T03:05:40.603Z,7.82
2022-12-01T03:08:45.942Z,6.70
2022-12-01T03:11:27.023Z,7.22
2022-12-01T03:14:05.687Z,7.05
2022-12-01T03:16:57.437Z,7.65
2022-12-01T03:19:34.775Z,8.25
2022-12-01T03:22:12.398Z,6.97
2022-12-01T03:24:42.289Z,8.50
2022-12-01T03:27:11.233Z,10.27
2022-12-01T03:29:43.199Z,8.13
2022-12-01T03:32:31.350Z,7.93
2022-12-01T03:35:04.739Z,8.05
2022-12-01T03:37:45.344Z,8.60
2022-12-01T03:40:18.018Z,9.45
2022-12-01T03:42:59.917Z,7.82
2022-12-01T03:46:03.291Z,10.93
2022-12-01T03:48:31.116Z,7.25
2022-12-01T03:51:09.458Z,8.18
2022-12-01T03:53:49.279Z,7.50
2022-12-01T03:56:20.285Z,9.23
2022-12-01T03:58:50.536Z,8.40
2022-12-01T04:01:17.056Z,10.10
2022-12-01T04:03:45.552Z,11.32
2022-12-01T04:06:12.009Z,10.13
2022-12-01T04:08:39.363Z,7.82
2022-12-01T04:11:32.272Z,8.77
2022-12-01T04:13:59.227Z,7.45
2022-12-01T04:16:25.691Z,9.00
2022-12-01T04:18:52.123Z,7.78
2022-12-01T04:21:18.560Z,8.18
2022-12-01T04:24:00.148Z,8.50
2022-12-01T04:26:32.103Z,8.63
2022-12-01T04:29:00.195Z,9.30
2022-12-01T04:31:26.769Z,9.07
2022-12-01T04:33:55.854Z,9.57
2022-12-01T04:36:23.672Z,9.57
2022-12-01T04:38:50.113Z,9.75
2022-12-01T04:41:16.670Z,9.30
2022-12-01T04:43:43.126Z,10.75
2022-12-01T04:46:10.392Z,10.57
2022-12-01T04:48:40.023Z,11.13
2022-12-01T04:51:08.168Z,13.70
2022-12-01T04:53:35.660Z,12.05
2022-12-01T04:56:03.001Z,11.57
2022-12-01T04:58:33.381Z,14.65
2022-12-01T05:01:05.297Z,12.35
2022-12-01T05:03:31.847Z,12.77
2022-12-01T05:06:07.383Z,13.38
2022-12-01T05:08:34.330Z,11.83
2022-12-01T05:11:01.313Z,14.88
2022-12-01T05:13:28.504Z,11.55
2022-12-01T05:16:05.064Z,12.52
2022-12-01T05:18:31.586Z,11.27
2022-12-01T05:20:58.141Z,14.13
2022-12-01T05:23:29.058Z,10.75
2022-12-01T05:25:55.737Z,10.27
2022-12-01T05:28:24.778Z,11.05
2022-12-01T05:30:51.215Z,14.40
2022-12-01T05:33:17.663Z,12.48
2022-12-01T05:35:44.266Z,12.63
2022-12-01T05:38:10.897Z,13.30
2022-12-01T05:40:37.802Z,10.00
2022-12-01T05:43:04.457Z,11.25
2022-12-01T05:45:31.189Z,9.50
2022-12-01T05:47:59.226Z,13.85
2022-12-01T05:50:27.706Z,12.65
2022-12-01T05:52:55.519Z,13.48
2022-12-01T05:55:22.302Z,12.23
2022-12-01T05:57:48.918Z,12.82
2022-12-01T06:00:15.735Z,12.88
2022-12-01T06:02:42.714Z,11.32
2022-12-01T06:05:09.823Z,13.75
2022-12-01T06:07:36.325Z,15.43
2022-12-01T06:10:03.797Z,17.55
2022-12-01T06:12:30.269Z,13.70
2022-12-01T06:14:56.726Z,12.95
2022-12-01T06:17:23.224Z,15.00
2022-12-01T06:19:49.857Z,13.52
2022-12-01T06:22:16.451Z,13.65
2022-12-01T06:24:42.909Z,15.93
2022-12-01T06:27:09.329Z,13.05
2022-12-01T06:29:41.797Z,13.23
2022-12-01T06:32:08.630Z,13.65
2022-12-01T06:34:35.102Z,14.65
2022-12-01T06:37:01.527Z,13.73
2022-12-01T06:39:27.966Z,13.88
2022-12-01T06:41:54.389Z,14.32
2022-12-01T06:44:20.884Z,16.48
2022-12-01T06:46:47.377Z,14.65
2022-12-01T06:49:13.805Z,14.00
2022-12-01T06:51:40.257Z,16.67
2022-12-01T06:54:06.718Z,11.88
2022-12-01T06:56:33.138Z,18.05
2022-12-01T06:58:59.897Z,15.70
2022-12-01T07:01:26.794Z,12.80
2022-12-01T07:03:53.305Z,17.17
2022-12-01T07:06:19.719Z,15.35
2022-12-01T07:08:46.200Z,13.80
2022-12-01T07:11:15.090Z,14.60
2022-12-01T07:13:45.237Z,14.82
2022-12-01T07:16:12.151Z,15.20
2022-12-01T07:18:38.752Z,12.98
2022-12-01T07:21:08.031Z,17.08
2022-12-01T07:23:35.004Z,17.40
2022-12-01T07:26:06.911Z,16.90
2022-12-01T07:28:33.630Z,15.50
2022-12-01T07:31:02.852Z,16.27
2022-12-01T07:33:29.369Z,15.55
2022-12-01T07:35:55.846Z,14.95
2022-12-01T07:38:22.526Z,17.17
2022-12-01T07:40:49.182Z,14.07
2022-12-01T07:43:15.777Z,13.48
2022-12-01T07:45:42.281Z,11.80
2022-12-01T07:48:08.804Z,12.63
2022-12-01T07:50:35.238Z,15.63
2022-12-01T07:53:01.704Z,12.43
2022-12-01T07:55:28.116Z,9.15
2022-12-01T07:57:54.552Z,12.23
2022-12-01T08:00:21.249Z,14.50
2022-12-01T08:02:50.532Z,9.82
2022-12-01T08:05:17.104Z,11.95
2022-12-01T08:07:43.557Z,13.35
2022-12-01T08:10:10.605Z,13.80
2022-12-01T08:12:37.063Z,12.90
2022-12-01T08:15:03.915Z,14.60
2022-12-01T08:17:30.416Z,12.93
2022-12-01T08:19:56.854Z,14.55
2022-12-01T08:22:23.276Z,13.20
2022-12-01T08:24:49.688Z,13.48
2022-12-01T08:27:16.107Z,13.18
2022-12-01T08:29:42.519Z,15.57
2022-12-01T08:32:08.939Z,12.45
2022-12-01T08:34:38.221Z,11.60
2022-12-01T08:37:04.744Z,12.43
2022-12-01T08:39:31.163Z,16.75
2022-12-01T08:41:57.631Z,12.20
2022-12-01T08:44:24.072Z,11.45
2022-12-01T08:46:50.639Z,11.43
2022-12-01T08:49:17.308Z,12.30
2022-12-01T08:51:43.764Z,14.43
2022-12-01T08:54:11.852Z,12.10
2022-12-01T08:56:41.663Z,12.20
2022-12-01T08:59:08.988Z,10.77
2022-12-01T09:01:51.757Z,10.38
2022-12-01T09:04:20.629Z,11.10
2022-12-01T09:06:48.588Z,10.48
2022-12-01T09:09:18.571Z,14.65
2022-12-01T09:11:46.007Z,10.80
2022-12-01T09:14:14.424Z,11.18
2022-12-01T09:16:42.603Z,10.95
2022-12-01T09:19:09.719Z,12.90
2022-12-01T09:21:37.446Z,12.38
2022-12-01T09:24:06.364Z,11.43
2022-12-01T09:26:34.034Z,11.63
2022-12-01T09:29:03.368Z,12.23
2022-12-01T09:31:30.386Z,13.60
2022-12-01T09:33:59.930Z,14.48
2022-12-01T09:36:27.675Z,11.27
2022-12-01T09:38:54.225Z,13.30
2022-12-01T09:41:26.100Z,10.38
2022-12-01T09:44:13.797Z,13.02
2022-12-01T09:46:45.858Z,12.57
2022-12-01T09:49:18.814Z,12.35
2022-12-01T09:51:45.757Z,14.18
2022-12-01T09:54:14.548Z,11.00
2022-12-01T09:56:55.390Z,9.10
2022-12-01T09:59:25.054Z,11.95
2022-12-01T10:01:56.500Z,11.93
2022-12-01T10:04:36.165Z,12.15
2022-12-01T10:07:11.809Z,12.15
2022-12-01T10:09:47.887Z,12.68
2022-12-01T10:12:17.533Z,11.85
2022-12-01T10:14:46.213Z,15.88
2022-12-01T10:17:25.106Z,14.35
2022-12-01T10:20:16.197Z,13.63
2022-12-01T10:22:54.935Z,15.02
2022-12-01T10:25:24.320Z,14.73
2022-12-01T10:28:15.833Z,13.82
2022-12-01T10:30:50.030Z,14.32
2022-12-01T10:33:25.136Z,13.40
2022-12-01T10:35:52.718Z,11.50
2022-12-01T10:38:26.626Z,14.10
2022-12-01T10:40:54.703Z,13.35
2022-12-01T10:43:30.274Z,12.40
2022-12-01T10:45:59.772Z,10.93
2022-12-01T10:48:26.521Z,9.88
2022-12-01T10:50:56.149Z,12.27
2022-12-01T10:53:31.677Z,11.73
2022-12-01T10:56:12.344Z,12.17
2022-12-01T10:58:57.414Z,9.63
2022-12-01T11:01:28.096Z,11.98
2022-12-01T11:04:01.636Z,9.48
2022-12-01T11:06:30.432Z,11.65
2022-12-01T11:08:59.017Z,11.60
2022-12-01T11:11:29.045Z,10.48
2022-12-01T11:13:57.861Z,10.40
2022-12-01T11:16:42.230Z,10.25
2022-12-01T11:19:23.339Z,8.68
2022-12-01T11:21:57.090Z,10.18
2022-12-01T11:24:44.843Z,10.75
2022-12-01T11:27:35.493Z,9.98
2022-12-01T11:30:20.168Z,9.65
2022-12-01T11:32:53.290Z,11.65
2022-12-01T11:35:22.544Z,12.77
2022-12-01T11:38:20.993Z,9.38
2022-12-01T11:40:49.319Z,10.60
2022-12-01T11:43:29.982Z,9.48
2022-12-01T11:45:59.874Z,11.38
2022-12-01T11:48:29.930Z,10.30
2022-12-01T11:51:04.023Z,7.95
2022-12-01T11:53:33.637Z,9.35
2022-12-01T11:56:28.803Z,7.35
2022-12-01T11:59:04.868Z,12.93
2022-12-01T12:01:50.259Z,7.75
2022-12-01T12:04:51.728Z,8.75
2022-12-01T12:07:36.655Z,10.20
2022-12-01T12:10:41.643Z,12.73
2022-12-01T12:13:15.240Z,10.07
2022-12-01T12:15:53.992Z,9.55
2022-12-01T12:18:35.438Z,7.90
2022-12-01T12:21:17.351Z,8.98
2022-12-01T12:23:59.027Z,10.05
2022-12-01T12:26:28.124Z,11.98
2022-12-01T12:29:19.749Z,11.00
2022-12-01T12:32:05.026Z,8.75
2022-12-01T12:34:42.825Z,11.85
2022-12-01T12:37:35.765Z,10.48
2022-12-01T12:40:37.347Z,11.98
2022-12-01T12:43:25.474Z,14.63
2022-12-01T12:46:15.737Z,12.30
2022-12-01T12:49:19.865Z,12.35
2022-12-01T12:52:08.501Z,10.80
2022-12-01T12:54:53.233Z,11.88
2022-12-01T12:57:31.206Z,11.05
2022-12-01T13:00:02.668Z,9.18
2022-12-01T13:02:53.525Z,10.57
2022-12-01T13:05:43.511Z,12.00
2022-12-01T13:08:20.877Z,9.60
2022-12-01T13:11:04.905Z,10.85
2022-12-01T13:13:39.113Z,11.18
2022-12-01T13:16:11.614Z,9.77
2022-12-01T13:18:44.164Z,12.57
2022-12-01T13:21:19.095Z,10.73
2022-12-01T13:23:47.545Z,10.10
2022-12-01T13:26:16.000Z,10.05
2022-12-01T13:28:48.013Z,11.13
2022-12-01T13:31:16.630Z,11.63
2022-12-01T13:34:01.520Z,9.45
2022-12-01T13:36:46.208Z,9.98
2022-12-01T13:39:23.492Z,7.65
2022-12-01T13:42:08.132Z,8.40
2022-12-01T13:44:42.184Z,9.82
2022-12-01T13:47:08.543Z,8.70
2022-12-01T13:49:40.712Z,8.10
2022-12-01T13:52:28.811Z,12.50
2022-12-01T13:55:07.428Z,10.63
2022-12-01T13:57:40.331Z,11.73
2022-12-01T14:00:22.474Z,9.43
2022-12-01T14:03:20.052Z,9.07
2022-12-01T14:05:53.063Z,9.85
2022-12-01T14:08:36.227Z,10.00
2022-12-01T14:11:06.593Z,7.72
2022-12-01T14:13:46.623Z,8.70
2022-12-01T14:16:13.281Z,10.05
2022-12-01T14:18:44.260Z,9.80
2022-12-01T14:21:12.415Z,9.43
2022-12-01T14:23:59.396Z,10.18
2022-12-01T14:28:54.798Z,10.05
2022-12-01T14:31:46.666Z,11.88
2022-12-01T14:34:19.864Z,9.77
2022-12-01T14:36:49.415Z,10.32
2022-12-01T14:39:22.776Z,11.05
2022-12-01T14:41:56.444Z,11.32
2022-12-01T14:44:35.098Z,8.57
2022-12-01T14:47:08.510Z,9.40
2022-12-01T14:49:41.721Z,10.40
2022-12-01T14:52:20.841Z,10.05
2022-12-01T14:54:49.568Z,12.00
2022-12-01T14:57:22.513Z,8.88
2022-12-01T15:00:06.030Z,11.10
2022-12-01T15:02:32.899Z,10.02
2022-12-01T15:05:06.652Z,9.85
2022-12-01T15:07:42.764Z,12.65
2022-12-01T15:10:39.257Z,8.57
2022-12-01T15:13:20.904Z,9.95
2022-12-01T15:15:52.992Z,10.63
2022-12-01T15:18:36.841Z,9.90
2022-12-01T15:21:11.852Z,9.27
2022-12-01T15:24:02.820Z,9.95
2022-12-01T15:26:33.363Z,12.63
2022-12-01T15:29:25.431Z,10.02
2022-12-01T15:32:05.516Z,9.60
2022-12-01T15:34:36.623Z,10.68
2022-12-01T15:37:05.352Z,10.20
2022-12-01T15:39:36.179Z,13.32
2022-12-01T15:42:04.178Z,11.65
2022-12-01T15:44:34.416Z,10.15
2022-12-01T15:47:44.105Z,9.70
2022-12-01T15:50:26.146Z,9.18
2022-12-01T15:52:52.595Z,10.80
2022-12-01T15:55:29.692Z,10.05
2022-12-01T15:57:57.822Z,10.57
2022-12-01T16:00:24.627Z,10.77
2022-12-01T16:03:02.052Z,13.35
2022-12-01T16:05:32.406Z,10.60
2022-12-01T16:08:23.350Z,13.95
2022-12-01T16:11:13.877Z,10.38
2022-12-01T16:13:56.358Z,9.27
2022-12-01T16:16:35.433Z,10.35
2022-12-01T16:19:08.040Z,10.82
2022-12-01T16:21:52.995Z,11.05
2022-12-01T16:24:21.735Z,11.38
2022-12-01T16:26:57.487Z,9.75
2022-12-01T16:29:25.717Z,10.88
2022-12-01T16:32:18.605Z,16.35
2022-12-01T16:34:47.169Z,12.32
2022-12-01T16:37:14.779Z,11.10
2022-12-01T16:39:41.521Z,11.07
2022-12-01T16:42:12.461Z,11.75
2022-12-01T16:44:39.585Z,10.57
2022-12-01T16:47:18.517Z,10.70
2022-12-01T16:49:44.987Z,11.98
2022-12-01T16:54:58.308Z,17.30
2022-12-01T16:57:24.736Z,13.77
2022-12-01T16:59:51.401Z,13.10
2022-12-01T17:02:17.995Z,12.52
2022-12-01T17:04:44.570Z,15.65
2022-12-01T17:07:11.000Z,16.27
2022-12-01T17:09:37.402Z,14.43
2022-12-01T17:12:04.263Z,14.75
2022-12-01T17:14:30.701Z,15.23
2022-12-01T17:17:00.010Z,15.35
2022-12-01T17:19:26.445Z,16.50
2022-12-01T17:21:53.025Z,15.23
2022-12-01T17:24:19.552Z,12.27
2022-12-01T17:26:46.103Z,13.13
2022-12-01T17:29:12.571Z,11.65
2022-12-01T17:31:39.082Z,14.15
2022-12-01T17:34:05.605Z,12.32
2022-12-01T17:36:32.066Z,13.57
2022-12-01T17:38:58.734Z,13.95
2022-12-01T17:41:31.958Z,28.95
2022-12-01T17:43:58.417Z,13.95
2022-12-01T17:46:25.067Z,12.55
2022-12-01T17:48:51.569Z,18.52
2022-12-01T17:51:18.043Z,13.57
2022-12-01T17:53:44.554Z,13.88
2022-12-01T17:56:13.487Z,12.82
2022-12-01T17:58:40.225Z,12.48
2022-12-01T18:01:13.644Z,12.45
2022-12-01T18:03:40.410Z,12.52
2022-12-01T18:06:07.165Z,14.43
2022-12-01T18:08:36.113Z,13.38
2022-12-01T18:11:09.797Z,10.93
2022-12-01T18:13:41.382Z,12.40
2022-12-01T18:16:09.556Z,13.63
2022-12-01T18:18:38.985Z,11.38
2022-12-01T18:21:07.109Z,11.07
2022-12-01T18:23:33.687Z,9.63
2022-12-01T18:26:15.737Z,12.80
2022-12-01T18:28:43.161Z,9.57
2022-12-01T18:31:13.390Z,12.57
2022-12-01T18:33:41.487Z,12.20
2022-12-01T18:36:24.800Z,10.90
2022-12-01T18:38:53.330Z,10.98
2022-12-01T18:41:20.581Z,11.27
2022-12-01T18:43:47.114Z,10.60
2022-12-01T18:46:15.292Z,11.57
2022-12-01T18:48:50.520Z,12.02
2022-12-01T18:51:18.039Z,12.95
2022-12-01T18:53:47.811Z,13.77
2022-12-01T18:56:15.515Z,11.40
2022-12-01T18:58:42.624Z,12.13
2022-12-01T19:01:20.967Z,11.35
2022-12-01T19:03:47.683Z,10.18
2022-12-01T19:06:14.338Z,11.10
2022-12-01T19:08:41.322Z,11.55
2022-12-01T19:11:08.073Z,13.15
2022-12-01T19:13:35.279Z,14.77
2022-12-01T19:16:07.118Z,13.07
2022-12-01T19:18:34.747Z,11.40
2022-12-01T19:21:05.751Z,12.02
2022-12-01T19:23:32.775Z,14.15
2022-12-01T19:26:02.025Z,12.00
2022-12-01T19:28:28.523Z,10.98
2022-12-01T19:30:54.972Z,11.85
2022-12-01T19:33:21.426Z,13.57
2022-12-01T19:35:47.910Z,11.45
2022-12-01T19:38:14.373Z,15.63
2022-12-01T19:40:42.078Z,14.15
2022-12-01T19:43:09.045Z,13.40
2022-12-01T19:45:39.611Z,10.75
2022-12-01T19:48:06.601Z,12.57
2022-12-01T19:50:36.421Z,10.32
2022-12-01T19:53:04.252Z,11.15
2022-12-01T19:55:30.869Z,12.50
2022-12-01T19:57:57.360Z,14.30
2022-12-01T20:00:25.862Z,14.25
2022-12-01T20:02:52.391Z,14.98
2022-12-01T20:05:18.876Z,13.02
2022-12-01T20:07:45.404Z,12.60
2022-12-01T20:10:11.857Z,10.50
2022-12-01T20:12:38.390Z,10.30
2022-12-01T20:15:08.513Z,10.98
2022-12-01T20:17:36.897Z,12.70
2022-12-01T20:20:04.897Z,10.38
2022-12-01T20:22:32.637Z,11.15
2022-12-01T20:24:59.136Z,9.90
2022-12-01T20:27:26.273Z,10.05
2022-12-01T20:29:52.920Z,9.68
2022-12-01T20:32:23.497Z,9.45
2022-12-01T20:34:50.665Z,9.32
2022-12-01T20:37:17.312Z,10.40
2022-12-01T20:39:43.737Z,8.18
2022-12-01T20:42:10.352Z,9.20
2022-12-01T20:44:37.612Z,10.07
2022-12-01T20:47:04.179Z,9.77
2022-12-01T20:49:30.712Z,9.30
2022-12-01T20:51:57.351Z,9.55
2022-12-01T20:54:28.803Z,10.05
2022-12-01T20:56:56.690Z,9.80
2022-12-01T20:59:23.353Z,9.30
2022-12-01T21:01:49.796Z,11.23
2022-12-01T21:04:16.261Z,12.23
2022-12-01T21:06:42.942Z,9.70
2022-12-01T21:09:09.612Z,10.98
2022-12-01T21:12:08.635Z,9.60
2022-12-01T21:15:01.244Z,15.15
2022-12-01T21:17:33.322Z,9.85
2022-12-01T21:20:21.285Z,10.75
2022-12-01T21:22:49.892Z,9.50
2022-12-01T21:25:19.597Z,13.48
2022-12-01T21:27:47.412Z,12.90
2022-12-01T21:30:20.077Z,10.32
2022-12-01T21:32:47.813Z,11.07
2022-12-01T21:35:24.671Z,9.98
2022-12-01T21:37:58.340Z,8.93
2022-12-01T21:40:26.923Z,11.20
2022-12-01T21:42:53.629Z,10.00
2022-12-01T21:45:29.296Z,8.05
2022-12-01T21:48:15.232Z,12.53
2022-12-01T21:50:42.020Z,10.25
2022-12-01T21:53:13.730Z,9.38
2022-12-01T21:55:42.914Z,10.00
2022-12-01T21:58:30.073Z,9.65
2022-12-01T22:00:58.980Z,9.90
2022-12-01T22:03:34.042Z,9.60
2022-12-01T22:09:00.410Z,13.32
2022-12-01T22:11:28.813Z,8.90
2022-12-01T22:14:13.130Z,10.07
2022-12-01T22:16:44.751Z,11.90
2022-12-01T22:19:23.529Z,10.38
2022-12-01T22:22:32.696Z,10.95
2022-12-01T22:25:25.202Z,9.68
2022-12-01T22:27:51.944Z,11.00
2022-12-01T22:30:21.002Z,8.82
2022-12-01T22:32:59.227Z,9.23
2022-12-01T22:35:42.181Z,9.65
2022-12-01T22:38:11.267Z,11.18
2022-12-01T22:40:46.736Z,10.27
2022-12-01T22:43:16.225Z,10.45
2022-12-01T22:46:00.447Z,9.23
2022-12-01T22:48:40.243Z,8.75
2022-12-01T22:51:12.637Z,11.95
2022-12-01T22:53:40.482Z,12.07
2022-12-01T22:56:26.770Z,9.45
2022-12-01T22:58:53.326Z,11.93
2022-12-01T23:01:32.526Z,10.05
2022-12-01T23:04:33.134Z,8.40
2022-12-01T23:07:21.480Z,11.35
2022-12-01T23:09:48.283Z,8.82
2022-12-01T23:12:23.513Z,9.15
2022-12-01T23:14:53.084Z,9.20
2022-12-01T23:17:24.243Z,8.05
2022-12-01T23:19:52.297Z,9.10
2022-12-01T23:22:19.142Z,9.45
2022-12-01T23:24:46.121Z,9.40
2022-12-01T23:27:18.245Z,9.63
2022-12-01T23:29:44.894Z,9.30
2022-12-01T23:32:12.218Z,9.48
2022-12-01T23:34:38.757Z,9.73
2022-12-01T23:37:22.143Z,8.43
2022-12-01T23:39:50.015Z,6.55
2022-12-01T23:42:16.436Z,7.50
2022-12-01T23:44:47.295Z,8.27
2022-12-01T23:47:22.028Z,8.15
2022-12-01T23:49:57.397Z,6.38
2022-12-01T23:52:30.654Z,8.52
2022-12-01T23:54:57.141Z,6.68
2022-12-01T23:57:25.058Z,7.20
2022-12-01T23:59:54.897Z,7.88
